Stanley, ID

3:17 AM MST on February 01, 2015 (GMT -0700)
Challis | Change Station
CLOSE
Current Station
Airport
Location: Challis,
Elevation: 5072 ft
Nearby Weather Stations
Active Advisory: Special Statement

Elev 5072 ft 44.52 °N, 114.21 °W | Updated 22 minutes ago

Clear
Clear
18 °F
Feels Like 13 °F
N
4
Wind Variable Wind from NNW

Today
High -- | Low -- °F
--% Chance of Precip.
Yesterday
High -- | Low -- °F
Precip. -- in
7:57 AM 5:48 PM
Waxing Gibbous, 94% visible
Pressure 30.32 in
Visibility 10.0 miles
Clouds Clear
Windchill 13 °F
Dew Point 14 °F
Humidity 84%
Rainfall 0.00 in
Snow Depth Not available.
UV 0 out of 12
Pollen .30 out of 12
Air Quality Not available.
Flu Activity Not available.
METAR KLLJ 010955Z AUTO 34003KT 10SM CLR M08/M10 A3020 RMK AO2 SLP266 T10781100

More Conditions Fewer Conditions

Pressure 30.32 in
Visibility 10.0 miles
Clouds Clear
Windchill 13 °F
Dew Point 14 °F
Humidity 84%
Rainfall 0.00 in
Snow Depth Not available.
UV 0 out of 12
Pollen .30 out of 12
Air Quality Not available.
Flu Activity Not available.
METAR KLLJ 010955Z AUTO 34003KT 10SM CLR M08/M10 A3020 RMK AO2 SLP266 T10781100

More Conditions Fewer Conditions

10-Day Weather Forecast

Almanac

Astronomy

Feb. 01, 2015 Rise Set
Actual Time
Civil Twilight
Nautical Twilight
Astronomical Twilight
Moon
Length of Visible Light
Length of Day
Tomorrow will be .
, % of the Moon is Illuminated

Today's Extremes

State Highs State Lows

Community

WunderPhotos

Upload Photos

1,792,330 photos uploaded!

WunderBlogs® & News

Nearby

Air Quality

  Air Quality AQ Index Pollutant
Not available.

Snow Depth

Station Depth Elevation

Earthquake Activity

City Distance Mag. Time & Date
Minimum magnitude displayed is 2.5.

Coastal Water Temperatures

Place Temperature

Nearby Weather Stations